Nearby METAR Reports

 

KMRB - Martinsburg, West Virginia, USA
Distance from station: NNW 9mi, 14km
Updated: 10/03/2022 10:53pm
Overcast
Overcast
 Wind from N
Wind: N 5 mph , 7 km/h
Temperature: 50°F , 10°C
Wind Chill: 48°F , 9°C
Dew Point: 41°F , 5°C
Humidity: 71%
Barometer: 30.20 inHg , 1022.7 hPa
Clouds: Overcast
Visibility: 10 miles , 16 km
Cloud details: Overcast 9500 ft
2022/10/04 02:53 KMRB 040253Z AUTO 36004KT 10SM OVC095 10/05 A3020 RMK AO2 SLP227 T01000050 58008
KOKV - Winchester Rgnl, Virginia, USA
Distance from station: SW 17mi, 28km
Updated: 10/03/2022 10:55pm
Overcast
Overcast
 Wind from NNW
Wind: NNW 3 mph , 6 km/h
Temperature: 46°F , 8°C
Dew Point: 41°F , 5°C
Humidity: 82%
Barometer: 30.18 inHg , 1022 hPa
Clouds: Overcast
Visibility: 10 miles , 16 km
Cloud details: Partly cloudy 7000 ft
Partly cloudy 8000 ft
Overcast 10000 ft
2022/10/04 02:55 KOKV 040255Z AUTO 33003KT 10SM SCT070 SCT080 OVC100 08/05 A3018 RMK AO2
 
KJYO - Leesburg/Godfrey, Virginia, USA
Distance from station: SE 23mi, 38km
Updated: 10/03/2022 11:15pm
Overcast
Overcast
 Wind from calm
Wind: Calm
Temperature: 46°F , 8°C
Dew Point: 46°F , 8°C
Humidity: 100%
Barometer: 30.20 inHg , 1022.7 hPa
Clouds: Overcast
Visibility: 10 miles , 16 km
Cloud details: Partly cloudy 6500 ft
Overcast 7000 ft
2022/10/04 03:15 KJYO 040315Z AUTO 00000KT 10SM SCT065 OVC070 08/08 A3020 RMK AO2
KFDK - Frederick, Maryland, USA
Distance from station: ENE 30mi, 48km
Updated: 10/03/2022 11:10pm
Light drizzle, Overcast
Light drizzle, Overcast
 Wind from calm
Wind: Calm
Temperature: 48°F , 9°C
Dew Point: 48°F , 9°C
Humidity: 100%
Barometer: 30.19 inHg , 1022.4 hPa
Summary: Light Drizzle
Clouds: Overcast
Visibility: 10 miles , 16 km
Cloud details: Mostly cloudy 7500 ft
Overcast 8500 ft
2022/10/04 03:10 KFDK 040310Z AUTO 00000KT 10SM -DZ BKN075 OVC085 09/09 A3019 RMK AO2
 
KHGR - Hagerstown, Maryland, USA
Distance from station: NNE 30mi, 48km
Updated: 10/03/2022 10:53pm
Overcast
Overcast
 Wind from calm
Wind: Calm
Temperature: 50°F , 10°C
Dew Point: 43°F , 6°C
Humidity: 76%
Barometer: 30.20 inHg , 1022.7 hPa
Clouds: Overcast
Visibility: 10 miles , 16 km
Cloud details: Overcast 10000 ft
2022/10/04 02:53 KHGR 040253Z AUTO 00000KT 10SM OVC100 10/06 A3020 RMK AO2 SLP238 T01000061 58007 $
KIAD - Wash Dc/Dulles, Virginia, USA
Distance from station: SE 34mi, 55km
Updated: 10/03/2022 10:52pm
Overcast
Overcast
 Wind from NNW
Wind: NNW 6 mph , 9 km/h
Temperature: 48°F , 9°C
Wind Chill: 45°F , 7°C
Dew Point: 45°F , 7°C
Humidity: 87%
Barometer: 30.19 inHg , 1022.4 hPa
Clouds: Overcast
Visibility: 10 miles , 16 km
Cloud details: Overcast 6500 ft
2022/10/04 02:52 KIAD 040252Z 33005KT 10SM OVC065 09/07 A3019 RMK AO2 RAE21 SLP222 P0001 60009 T00940067 58007
 
KRSP - Nsf Thurmont, Maryland, USA
Distance from station: NE 34mi, 55km
Updated: 09/29/2022 5:54pm
NOT Current
Partly cloudy
Partly cloudy
 Wind from varies
Wind: varies 3 mph , 6 km/h
Temperature: 55°F , 13°C
Barometer: 30.35 inHg , 1027.8 hPa
Clouds: Partly cloudy
Cloud details: Partly cloudy 2900 ft
2022/09/29 21:54 KRSP 292154Z AUTO VRB03KT SCT029 13/ A3035 RMK AO2 SLP285 T0133 $
KGAI - Gaithersburg, Maryland, USA
Distance from station: E 40mi, 64km
Updated: 10/03/2022 10:56pm
Overcast
Overcast
 Wind from calm
Wind: Calm
Temperature: 46°F , 8°C
Dew Point: 45°F , 7°C
Humidity: 93%
Barometer: 30.19 inHg , 1022.4 hPa
Clouds: Overcast
Cloud details: Partly cloudy 7000 ft
Overcast 8500 ft
2022/10/04 02:56 KGAI 040256Z AUTO 00000KT SCT070 OVC085 08/07 A3019 RMK AO2 SLP237 P0004 60029 T00780072 58007 PWINO $
 
KRYT - Fountain Dale, Pennsylvania, USA
Distance from station: NE 40mi, 64km
Updated: 11/13/2017 7:53am
NOT Current
Mist, Overcast
Mist, Overcast
 Wind from calm
Wind: Calm
Temperature: 37°F , 3°C
Dew Point: 34°F , 1°C
Humidity: 87%
Barometer: 30.31 inHg , 1026.4 hPa
Summary: Mist
Clouds: Overcast
Visibility: 5 miles , 8 km
Cloud details: Overcast 700 ft
2017/11/13 12:53 KRYT 131253Z AUTO 00000KT 5SM BR OVC007 03/01 A3031 RMK AO2 SLP275 T00280011 TSNO $
KHEF - Manassas Muni, Virginia, USA
Distance from station: SSE 44mi, 72km
Updated: 10/03/2022 10:56pm
Light rain, Overcast
Light rain, Overcast
 Wind from NNW
Wind: NNW 9 mph , 15 km/h
Temperature: 48°F , 9°C
Wind Chill: 44°F , 7°C
Dew Point: 45°F , 7°C
Humidity: 87%
Barometer: 30.19 inHg , 1022.4 hPa
Summary: Light rain
Clouds: Overcast
Visibility: 10 miles , 16 km
Cloud details: Overcast 7000 ft
2022/10/04 02:56 KHEF 040256Z 34008KT 10SM -RA OVC070 09/07 A3019 RMK AO2 SLP229 6//// T00890072 58009 PNO $
 
KHWY - Warrenton, Virginia, USA
Distance from station: SSE 50mi, 80km
Updated: 09/29/2022 12:35pm
NOT Current
Clear
Clear
 
Clouds: Clear
Visibility: 10 miles , 16 km
2022/09/29 16:35 KHWY 291635Z AUTO 10SM CLR RMK AO2 PNO TSNO